createdAt,value
2022-08-28T00:27:22.488Z,25.25
2022-08-28T00:56:13.538Z,25.22
2022-08-28T01:24:30.617Z,25.19
2022-08-28T01:53:15.949Z,25.19
2022-08-28T02:21:58.710Z,25.19
2022-08-28T02:50:48.384Z,25.14
2022-08-28T03:19:22.604Z,25.08
2022-08-28T03:48:14.122Z,25.06
2022-08-28T04:16:53.718Z,24.9
2022-08-28T04:45:22.085Z,24.28
2022-08-28T05:14:06.552Z,23.4
2022-08-28T05:42:45.300Z,22.36
2022-08-28T06:11:46.043Z,22.91
2022-08-28T06:40:06.232Z,22.92
2022-08-28T07:08:46.950Z,23.82
2022-08-28T07:37:41.241Z,24.23
2022-08-28T08:06:11.853Z,24.38
2022-08-28T08:34:57.733Z,24.57
2022-08-28T09:03:28.384Z,24.66
2022-08-28T09:32:06.955Z,24.72
2022-08-28T10:00:49.107Z,24.79
2022-08-28T10:29:28.029Z,24.88
2022-08-28T10:58:21.550Z,24.93
2022-08-28T11:26:34.965Z,24.97
2022-08-28T11:55:16.324Z,25.01
2022-08-28T12:24:03.126Z,25.06
2022-08-28T12:52:22.173Z,25.11
2022-08-28T13:21:06.851Z,25.16
2022-08-28T13:49:55.471Z,25.2
2022-08-28T14:18:42.411Z,25.25
2022-08-28T14:47:33.330Z,25.28
2022-08-28T15:16:20.074Z,25.31
2022-08-28T15:44:58.966Z,25.34
2022-08-28T16:13:23.089Z,25.36
2022-08-28T16:42:06.699Z,25.4
2022-08-28T17:10:52.925Z,25.43
2022-08-28T17:39:26.535Z,25.45
2022-08-28T18:08:14.730Z,25.46
2022-08-28T18:36:53.047Z,25.42
2022-08-28T19:05:38.437Z,25.39
2022-08-28T19:34:17.326Z,25.3
2022-08-28T20:02:58.666Z,25.22
2022-08-28T20:31:33.531Z,25.21
2022-08-28T21:00:14.127Z,25.19
2022-08-28T21:29:05.782Z,25.17
2022-08-28T21:57:49.401Z,25.14
2022-08-28T22:26:36.315Z,25.03
2022-08-28T22:55:25.743Z,25
2022-08-28T23:23:53.221Z,24.91
2022-08-28T23:52:44.829Z,24.87
